createdAt,value
2022-09-13T00:01:28.334Z,13.20
2022-09-13T00:03:55.362Z,14.52
2022-09-13T00:06:22.597Z,14.85
2022-09-13T00:08:49.910Z,10.70
2022-09-13T00:11:20.609Z,13.32
2022-09-13T00:13:47.956Z,15.73
2022-09-13T00:16:17.328Z,14.10
2022-09-13T00:18:44.386Z,11.00
2022-09-13T00:21:14.566Z,13.82
2022-09-13T00:23:44.966Z,14.23
2022-09-13T00:26:14.389Z,11.75
2022-09-13T00:28:41.632Z,13.70
2022-09-13T00:31:09.603Z,13.57
2022-09-13T00:33:37.220Z,11.63
2022-09-13T00:36:09.369Z,13.93
2022-09-13T00:38:40.267Z,11.85
2022-09-13T00:41:12.248Z,14.55
2022-09-13T00:43:48.426Z,11.20
2022-09-13T00:46:39.822Z,11.45
2022-09-13T00:49:24.001Z,14.85
2022-09-13T00:51:56.992Z,13.20
2022-09-13T00:54:27.595Z,12.70
2022-09-13T00:56:59.370Z,14.25
2022-09-13T00:59:53.348Z,13.98
2022-09-13T01:02:21.098Z,12.65
2022-09-13T01:04:48.521Z,13.80
2022-09-13T01:07:17.732Z,13.75
2022-09-13T01:09:49.794Z,13.63
2022-09-13T01:12:56.876Z,14.85
2022-09-13T01:15:24.179Z,12.70
2022-09-13T01:17:53.084Z,12.60
2022-09-13T01:20:28.497Z,14.15
2022-09-13T01:23:26.559Z,16.70
2022-09-13T01:26:27.065Z,14.13
2022-09-13T01:29:11.294Z,14.07
2022-09-13T01:31:46.035Z,12.98
2022-09-13T01:34:19.363Z,15.30
2022-09-13T01:36:46.185Z,13.55
2022-09-13T01:39:38.687Z,15.43
2022-09-13T01:42:17.589Z,12.50
2022-09-13T01:45:20.835Z,14.60
2022-09-13T01:48:28.546Z,15.32
2022-09-13T01:51:08.921Z,12.20
2022-09-13T01:53:57.477Z,16.02
2022-09-13T01:56:35.562Z,13.00
2022-09-13T01:59:11.882Z,15.35
2022-09-13T02:01:46.589Z,11.38
2022-09-13T02:04:19.537Z,14.65
2022-09-13T02:06:56.761Z,15.15
2022-09-13T02:09:27.758Z,13.23
2022-09-13T02:12:02.952Z,12.93
2022-09-13T02:14:38.752Z,17.05
2022-09-13T02:17:23.317Z,14.27
2022-09-13T02:19:58.182Z,12.27
2022-09-13T02:22:36.217Z,16.85
2022-09-13T02:25:09.067Z,14.68
2022-09-13T02:27:38.641Z,14.27
2022-09-13T02:35:42.397Z,13.10
2022-09-13T02:38:16.673Z,13.02
2022-09-13T02:40:49.492Z,13.15
2022-09-13T02:43:22.661Z,13.40
2022-09-13T02:46:16.729Z,13.15
2022-09-13T02:49:05.087Z,15.48
2022-09-13T02:51:49.851Z,12.05
2022-09-13T02:54:30.321Z,11.75
2022-09-13T02:57:12.969Z,14.45
2022-09-13T02:59:39.932Z,14.02
2022-09-13T03:02:11.333Z,15.07
2022-09-13T03:04:38.421Z,15.63
2022-09-13T03:07:13.253Z,13.80
2022-09-13T03:09:52.221Z,12.98
2022-09-13T03:12:31.209Z,13.57
2022-09-13T03:15:30.846Z,11.20
2022-09-13T03:18:31.297Z,11.60
2022-09-13T03:21:30.333Z,11.57
2022-09-13T03:24:30.422Z,13.15
2022-09-13T03:27:21.717Z,12.77
2022-09-13T03:30:04.345Z,12.82
2022-09-13T03:32:51.908Z,11.38
2022-09-13T03:35:32.209Z,12.00
2022-09-13T03:38:11.010Z,12.52
2022-09-13T03:40:47.165Z,12.27
2022-09-13T03:43:20.145Z,12.18
2022-09-13T03:45:54.758Z,10.93
2022-09-13T03:48:23.417Z,11.98
2022-09-13T03:50:50.688Z,12.00
2022-09-13T03:53:23.688Z,12.20
2022-09-13T03:55:50.660Z,12.50
2022-09-13T03:58:20.686Z,13.18
2022-09-13T04:00:47.844Z,16.00
2022-09-13T04:03:15.410Z,12.20
2022-09-13T04:05:42.382Z,13.73
2022-09-13T04:08:09.764Z,12.13
2022-09-13T04:10:37.652Z,12.73
2022-09-13T04:13:05.072Z,12.73
2022-09-13T04:15:32.005Z,10.15
2022-09-13T04:17:59.827Z,11.57
2022-09-13T04:20:26.828Z,11.05
2022-09-13T04:22:54.944Z,11.02
2022-09-13T04:25:22.875Z,12.02
2022-09-13T04:27:59.956Z,13.63
2022-09-13T04:30:28.072Z,11.50
2022-09-13T04:32:57.049Z,14.82
2022-09-13T04:35:23.952Z,11.93
2022-09-13T04:37:50.906Z,10.85
2022-09-13T04:40:17.871Z,12.48
2022-09-13T04:42:45.296Z,11.13
2022-09-13T04:45:12.256Z,11.52
2022-09-13T04:47:39.282Z,14.88
2022-09-13T04:50:07.081Z,15.35
2022-09-13T04:52:34.122Z,15.32
2022-09-13T04:55:01.972Z,14.68
2022-09-13T04:57:29.250Z,12.77
2022-09-13T04:59:56.177Z,13.70
2022-09-13T05:02:23.230Z,11.35
2022-09-13T05:04:50.200Z,13.27
2022-09-13T05:07:17.497Z,14.18
2022-09-13T05:09:44.492Z,13.38
2022-09-13T05:12:11.768Z,16.23
2022-09-13T05:14:38.797Z,15.45
2022-09-13T05:17:05.757Z,17.75
2022-09-13T05:19:32.963Z,12.15
2022-09-13T05:22:00.422Z,14.70
2022-09-13T05:24:27.605Z,16.15
2022-09-13T05:26:54.521Z,14.20
2022-09-13T05:29:21.409Z,14.70
2022-09-13T05:31:48.379Z,13.82
2022-09-13T05:34:17.809Z,13.90
2022-09-13T05:36:44.797Z,12.88
2022-09-13T05:42:05.044Z,16.80
2022-09-13T05:44:32.028Z,13.60
2022-09-13T05:46:58.924Z,16.50
2022-09-13T05:49:25.918Z,15.00
2022-09-13T05:51:52.858Z,15.35
2022-09-13T05:54:19.818Z,15.07
2022-09-13T05:56:46.717Z,18.15
2022-09-13T05:59:14.679Z,12.13
2022-09-13T06:01:42.109Z,13.77
2022-09-13T06:04:09.100Z,15.40
2022-09-13T06:06:36.136Z,11.70
2022-09-13T06:09:06.340Z,11.20
2022-09-13T06:11:33.355Z,10.25
2022-09-13T06:14:00.238Z,15.55
2022-09-13T06:16:27.268Z,12.38
2022-09-13T06:18:54.272Z,11.13
2022-09-13T06:21:26.959Z,13.57
2022-09-13T06:23:56.149Z,15.30
2022-09-13T06:26:25.393Z,14.80
2022-09-13T06:29:17.020Z,12.43
2022-09-13T06:31:45.182Z,13.57
2022-09-13T06:34:17.350Z,14.20
2022-09-13T06:36:44.358Z,13.57
2022-09-13T06:39:11.260Z,14.15
2022-09-13T06:41:38.601Z,13.07
2022-09-13T06:44:05.583Z,14.23
2022-09-13T06:46:35.817Z,12.90
2022-09-13T06:49:05.785Z,11.93
2022-09-13T06:51:34.462Z,9.93
2022-09-13T06:54:03.768Z,13.20
2022-09-13T06:56:33.213Z,12.48
2022-09-13T06:59:04.604Z,10.93
2022-09-13T07:01:32.637Z,10.20
2022-09-13T07:04:10.819Z,15.52
2022-09-13T07:06:48.773Z,12.75
2022-09-13T07:09:19.082Z,15.05
2022-09-13T07:11:47.181Z,12.10
2022-09-13T07:14:25.541Z,12.32
2022-09-13T07:16:53.103Z,14.60
2022-09-13T07:19:26.316Z,13.95
2022-09-13T07:21:54.725Z,13.50
2022-09-13T07:24:22.292Z,12.93
2022-09-13T07:26:49.804Z,13.30
2022-09-13T07:29:19.656Z,13.25
2022-09-13T07:31:49.259Z,11.07
2022-09-13T07:36:46.658Z,15.13
2022-09-13T07:39:17.318Z,12.65
2022-09-13T07:41:48.162Z,13.90
2022-09-13T07:44:15.296Z,15.93
2022-09-13T07:46:43.613Z,13.10
2022-09-13T07:49:16.470Z,14.32
2022-09-13T07:51:44.591Z,12.50
2022-09-13T07:54:17.496Z,17.25
2022-09-13T07:56:45.346Z,13.00
2022-09-13T07:59:16.586Z,11.30
2022-09-13T08:01:49.394Z,11.77
2022-09-13T08:04:19.758Z,12.52
2022-09-13T08:06:47.105Z,14.55
2022-09-13T08:09:14.857Z,11.95
2022-09-13T08:11:45.106Z,10.93
2022-09-13T08:14:14.107Z,9.63
2022-09-13T08:16:41.280Z,11.93
2022-09-13T08:19:11.987Z,9.98
2022-09-13T08:21:40.554Z,12.50
2022-09-13T08:24:13.346Z,10.85
2022-09-13T08:26:40.257Z,11.30
2022-09-13T08:29:07.672Z,10.20
2022-09-13T08:31:35.101Z,12.13
2022-09-13T08:34:02.169Z,12.02
2022-09-13T08:36:29.637Z,14.95
2022-09-13T08:38:59.127Z,10.00
2022-09-13T08:41:31.914Z,10.98
2022-09-13T08:44:29.551Z,11.77
2022-09-13T08:47:15.022Z,11.48
2022-09-13T08:49:46.654Z,9.98
2022-09-13T08:52:25.426Z,13.00
2022-09-13T08:54:57.945Z,13.77
2022-09-13T08:57:31.079Z,12.05
2022-09-13T09:00:10.221Z,12.00
2022-09-13T09:03:30.710Z,13.25
2022-09-13T09:05:57.635Z,12.85
2022-09-13T09:08:48.059Z,8.80
2022-09-13T09:11:40.810Z,11.43
2022-09-13T09:14:20.669Z,12.45
2022-09-13T09:16:53.553Z,9.73
2022-09-13T09:19:30.237Z,10.23
2022-09-13T09:21:59.300Z,8.63
2022-09-13T09:24:26.245Z,15.40
2022-09-13T09:26:57.144Z,8.40
2022-09-13T09:29:32.592Z,7.80
2022-09-13T09:32:45.549Z,8.80
2022-09-13T09:35:46.042Z,8.15
2022-09-13T09:38:44.309Z,9.48
2022-09-13T09:41:23.253Z,9.52
2022-09-13T09:43:52.515Z,7.97
2022-09-13T09:46:24.771Z,7.70
2022-09-13T09:48:56.402Z,10.02
2022-09-13T09:51:26.186Z,9.30
2022-09-13T09:54:02.093Z,7.80
2022-09-13T09:56:33.934Z,6.65
2022-09-13T09:59:02.409Z,7.10
2022-09-13T10:01:35.685Z,13.32
2022-09-13T10:04:11.407Z,10.90
2022-09-13T10:06:40.525Z,7.97
2022-09-13T10:09:13.425Z,7.47
2022-09-13T10:11:50.936Z,14.43
2022-09-13T10:14:35.907Z,9.10
2022-09-13T10:17:17.265Z,6.95
2022-09-13T10:19:58.650Z,10.07
2022-09-13T10:22:26.936Z,9.13
2022-09-13T10:24:54.068Z,11.00
2022-09-13T10:27:26.866Z,12.70
2022-09-13T10:29:59.523Z,8.23
2022-09-13T10:32:28.694Z,8.60
2022-09-13T10:34:59.112Z,7.90
2022-09-13T10:37:33.599Z,6.35
2022-09-13T10:40:06.136Z,6.70
2022-09-13T10:42:33.627Z,10.43
2022-09-13T10:45:06.326Z,7.38
2022-09-13T10:47:39.241Z,7.47
2022-09-13T10:50:27.747Z,11.70
2022-09-13T10:52:59.293Z,9.48
2022-09-13T10:55:27.392Z,7.40
2022-09-13T10:58:03.484Z,9.80
2022-09-13T11:00:36.789Z,12.60
2022-09-13T11:03:21.900Z,5.10
2022-09-13T11:08:47.536Z,8.30
2022-09-13T11:11:53.420Z,13.23
2022-09-13T11:14:58.471Z,7.95
2022-09-13T11:17:37.261Z,5.22
2022-09-13T11:20:13.454Z,6.67
2022-09-13T11:23:22.214Z,6.75
2022-09-13T11:26:10.075Z,8.90
2022-09-13T11:29:15.022Z,6.50
2022-09-13T11:31:56.013Z,5.95
2022-09-13T11:34:33.121Z,5.18
2022-09-13T11:37:18.202Z,6.97
2022-09-13T11:40:10.303Z,6.10
2022-09-13T11:42:48.854Z,7.20
2022-09-13T11:45:31.285Z,6.47
2022-09-13T11:48:30.538Z,7.82
2022-09-13T11:51:25.139Z,11.02
2022-09-13T11:54:27.770Z,7.30
2022-09-13T11:56:59.380Z,7.38
2022-09-13T11:59:56.096Z,5.95
2022-09-13T12:02:52.469Z,9.03
2022-09-13T12:05:49.177Z,5.70
2022-09-13T12:08:42.334Z,5.40
2022-09-13T12:11:36.412Z,8.00
2022-09-13T12:14:27.701Z,6.15
2022-09-13T12:17:49.965Z,5.35
2022-09-13T12:20:27.429Z,5.03
2022-09-13T12:22:57.989Z,5.22
2022-09-13T12:25:56.965Z,5.38
2022-09-13T12:29:06.903Z,5.95
2022-09-13T12:31:33.917Z,5.20
2022-09-13T12:34:07.492Z,7.95
2022-09-13T12:37:01.969Z,5.45
2022-09-13T12:39:56.381Z,7.80
2022-09-13T12:42:52.521Z,6.75
2022-09-13T12:46:16.332Z,6.35
2022-09-13T12:48:43.341Z,5.35
2022-09-13T12:51:28.100Z,8.57
2022-09-13T12:54:07.426Z,6.93
2022-09-13T12:56:43.132Z,5.80
2022-09-13T12:59:39.626Z,5.68
2022-09-13T13:02:40.641Z,9.85
2022-09-13T13:05:19.546Z,6.03
2022-09-13T13:07:53.021Z,7.20
2022-09-13T13:10:33.506Z,6.80
2022-09-13T13:13:24.050Z,7.30
2022-09-13T13:15:50.892Z,9.15
2022-09-13T13:18:27.296Z,10.40
2022-09-13T13:20:54.156Z,5.57
2022-09-13T13:23:39.902Z,6.18
2022-09-13T13:26:08.637Z,5.95
2022-09-13T13:28:44.590Z,6.50
2022-09-13T13:31:30.257Z,8.35
2022-09-13T13:34:06.052Z,6.55
2022-09-13T13:37:04.146Z,7.57
2022-09-13T13:40:11.019Z,7.95
2022-09-13T13:42:39.523Z,9.02
2022-09-13T13:45:17.696Z,6.13
2022-09-13T13:48:12.405Z,7.35
2022-09-13T13:51:15.218Z,7.22
2022-09-13T13:54:22.557Z,6.35
2022-09-13T13:56:50.002Z,7.47
2022-09-13T13:59:23.262Z,12.50
2022-09-13T14:01:55.576Z,7.82
2022-09-13T14:04:34.644Z,9.38
2022-09-13T14:07:21.323Z,9.30
2022-09-13T14:10:39.616Z,6.20
2022-09-13T14:13:25.246Z,9.10
2022-09-13T14:16:39.146Z,9.50
2022-09-13T14:19:34.269Z,9.15
2022-09-13T14:22:21.063Z,9.50
2022-09-13T14:24:49.025Z,4.68
2022-09-13T14:27:33.261Z,5.82
2022-09-13T14:30:22.834Z,8.95
2022-09-13T14:32:55.502Z,13.77
2022-09-13T14:35:35.258Z,8.50
2022-09-13T14:38:30.963Z,8.43
2022-09-13T14:41:31.395Z,7.65
2022-09-13T14:47:19.353Z,7.82
2022-09-13T14:49:51.044Z,6.88
2022-09-13T14:52:29.857Z,11.15
2022-09-13T14:55:04.199Z,4.70
2022-09-13T14:57:36.087Z,9.52
2022-09-13T15:00:15.704Z,7.57
2022-09-13T15:02:53.791Z,8.07
2022-09-13T15:05:40.109Z,9.60
2022-09-13T15:08:25.841Z,7.95
2022-09-13T15:10:53.116Z,9.18
2022-09-13T15:13:42.589Z,13.70
2022-09-13T15:16:26.173Z,5.05
2022-09-13T15:19:35.671Z,9.38
2022-09-13T15:22:06.261Z,10.30
2022-09-13T15:24:34.466Z,5.72
2022-09-13T15:27:07.968Z,8.68
2022-09-13T15:29:37.433Z,3.80
2022-09-13T15:32:29.307Z,11.23
2022-09-13T15:34:58.103Z,6.15
2022-09-13T15:37:34.403Z,5.97
2022-09-13T15:40:20.175Z,4.13
2022-09-13T15:42:49.005Z,9.43
2022-09-13T15:45:17.317Z,7.75
2022-09-13T15:47:46.759Z,5.28
2022-09-13T15:53:11.403Z,7.43
2022-09-13T15:55:39.516Z,5.45
2022-09-13T15:58:06.421Z,5.88
2022-09-13T16:00:33.381Z,7.03
2022-09-13T16:03:00.333Z,7.35
2022-09-13T16:05:46.080Z,7.20
2022-09-13T16:08:13.280Z,5.30
2022-09-13T16:10:40.264Z,9.85
2022-09-13T16:13:07.196Z,11.75
2022-09-13T16:15:34.425Z,6.18
2022-09-13T16:18:19.981Z,8.15
2022-09-13T16:20:47.534Z,8.88
2022-09-13T16:23:14.462Z,6.63
2022-09-13T16:25:42.040Z,7.57
2022-09-13T16:28:27.834Z,6.97
2022-09-13T16:30:54.954Z,9.60
2022-09-13T16:33:22.472Z,8.23
2022-09-13T16:35:49.415Z,5.85
2022-09-13T16:38:16.388Z,6.07
2022-09-13T16:40:43.478Z,8.45
2022-09-13T16:43:22.447Z,10.70
2022-09-13T16:45:51.372Z,6.20
2022-09-13T16:48:18.297Z,7.03
2022-09-13T16:50:45.510Z,6.18
2022-09-13T16:53:35.294Z,7.82
2022-09-13T16:56:17.307Z,6.65
2022-09-13T16:58:49.226Z,7.07
2022-09-13T17:01:19.029Z,11.95
2022-09-13T17:03:46.049Z,12.23
2022-09-13T17:06:15.416Z,10.65
2022-09-13T17:08:46.629Z,10.10
2022-09-13T17:11:15.436Z,10.27
2022-09-13T17:13:42.419Z,13.10
2022-09-13T17:16:25.526Z,12.93
2022-09-13T17:18:53.053Z,13.82
2022-09-13T17:21:21.707Z,10.85
2022-09-13T17:23:49.386Z,11.02
2022-09-13T17:26:16.349Z,9.82
2022-09-13T17:29:01.806Z,11.05
2022-09-13T17:31:28.880Z,8.70
2022-09-13T17:33:56.180Z,10.30
2022-09-13T17:36:23.111Z,8.82
2022-09-13T17:39:08.902Z,11.73
2022-09-13T17:41:36.378Z,11.10
2022-09-13T17:44:03.838Z,8.98
2022-09-13T17:46:30.891Z,8.93
2022-09-13T17:48:59.455Z,11.93
2022-09-13T17:51:45.059Z,12.25
2022-09-13T17:54:12.897Z,12.32
2022-09-13T17:56:42.648Z,12.45
2022-09-13T17:59:10.925Z,15.15
2022-09-13T18:01:40.684Z,14.35
2022-09-13T18:04:08.435Z,11.40
2022-09-13T18:06:36.688Z,11.57
2022-09-13T18:09:03.693Z,13.40
2022-09-13T18:11:30.709Z,13.23
2022-09-13T18:13:57.654Z,10.93
2022-09-13T18:16:26.300Z,10.07
2022-09-13T18:18:53.511Z,13.60
2022-09-13T18:21:23.427Z,12.40
2022-09-13T18:23:52.937Z,13.63
2022-09-13T18:26:38.406Z,16.27
2022-09-13T18:29:09.980Z,13.50
2022-09-13T18:31:48.660Z,12.23
2022-09-13T18:34:34.337Z,11.38
2022-09-13T18:37:01.462Z,14.65
2022-09-13T18:39:46.753Z,12.20
2022-09-13T18:42:14.009Z,14.00
2022-09-13T18:44:40.954Z,13.05
2022-09-13T18:47:08.701Z,12.68
2022-09-13T18:49:35.700Z,17.60
2022-09-13T18:52:21.005Z,16.13
2022-09-13T18:54:48.096Z,14.98
2022-09-13T18:57:15.133Z,13.70
2022-09-13T18:59:42.150Z,13.70
2022-09-13T19:02:27.524Z,14.60
2022-09-13T19:04:55.888Z,16.00
2022-09-13T19:07:23.233Z,18.73
2022-09-13T19:09:50.212Z,20.25
2022-09-13T19:12:17.268Z,24.95
2022-09-13T19:14:44.543Z,21.83
2022-09-13T19:17:30.105Z,16.30
2022-09-13T19:19:57.107Z,17.73
2022-09-13T19:22:24.037Z,16.60
2022-09-13T19:24:52.397Z,17.60
2022-09-13T19:27:19.749Z,12.88
2022-09-13T19:30:02.673Z,15.15
2022-09-13T19:32:48.382Z,19.88
2022-09-13T19:35:15.399Z,18.42
2022-09-13T19:38:00.745Z,15.98
2022-09-13T19:40:28.088Z,20.58
2022-09-13T19:42:55.098Z,17.15
2022-09-13T19:45:22.536Z,17.40
2022-09-13T19:48:34.749Z,14.25
2022-09-13T19:50:50.274Z,13.55
2022-09-13T19:53:17.259Z,15.00
2022-09-13T19:55:46.609Z,14.88
2022-09-13T19:58:15.173Z,13.85
2022-09-13T20:00:43.355Z,14.37
2022-09-13T20:03:10.278Z,15.65
2022-09-13T20:05:37.598Z,11.48
2022-09-13T20:08:04.909Z,17.48
2022-09-13T20:10:32.823Z,16.00
2022-09-13T20:13:19.469Z,13.32
2022-09-13T20:15:48.391Z,14.75
2022-09-13T20:18:15.519Z,16.70
2022-09-13T20:20:43.314Z,16.35
2022-09-13T20:23:10.425Z,15.57
2022-09-13T20:25:40.506Z,14.05
2022-09-13T20:28:26.353Z,15.70
2022-09-13T20:30:55.153Z,13.20
2022-09-13T20:33:22.832Z,17.27
2022-09-13T20:35:50.339Z,10.35
2022-09-13T20:38:35.906Z,11.63
2022-09-13T20:41:08.063Z,11.68
2022-09-13T20:43:37.285Z,12.30
2022-09-13T20:46:05.636Z,13.38
2022-09-13T20:48:33.993Z,14.63
2022-09-13T20:51:21.611Z,15.55
2022-09-13T20:53:53.509Z,15.35
2022-09-13T20:56:20.497Z,17.13
2022-09-13T20:58:56.867Z,13.30
2022-09-13T21:01:43.332Z,14.88
2022-09-13T21:04:10.508Z,14.65
2022-09-13T21:07:02.005Z,13.05
2022-09-13T21:09:29.204Z,9.02
2022-09-13T21:11:56.155Z,11.77
2022-09-13T21:14:23.592Z,12.13
2022-09-13T21:16:50.616Z,9.10
2022-09-13T21:19:17.581Z,12.48
2022-09-13T21:21:44.556Z,9.85
2022-09-13T21:24:12.587Z,7.47
2022-09-13T21:26:42.237Z,8.50
2022-09-13T21:29:11.254Z,11.27
2022-09-13T21:31:38.767Z,10.38
2022-09-13T21:34:08.530Z,9.35
2022-09-13T21:36:35.756Z,10.23
2022-09-13T21:39:15.105Z,8.60
2022-09-13T21:41:42.933Z,13.55
2022-09-13T21:44:10.234Z,11.30
2022-09-13T21:46:38.557Z,17.55
2022-09-13T21:49:08.056Z,14.05
2022-09-13T21:51:49.654Z,15.48
2022-09-13T21:54:19.089Z,15.03
2022-09-13T21:56:51.733Z,16.67
2022-09-13T21:59:36.992Z,18.58
2022-09-13T22:02:04.157Z,18.33
2022-09-13T22:04:32.975Z,16.67
2022-09-13T22:06:59.918Z,16.42
2022-09-13T22:09:27.688Z,14.38
2022-09-13T22:11:56.259Z,14.15
2022-09-13T22:14:23.229Z,13.95
2022-09-13T22:16:52.606Z,13.82
2022-09-13T22:19:25.857Z,13.70
2022-09-13T22:21:55.483Z,15.02
2022-09-13T22:24:24.506Z,13.35
2022-09-13T22:27:09.860Z,14.25
2022-09-13T22:29:36.880Z,13.45
2022-09-13T22:32:25.070Z,15.63
2022-09-13T22:34:53.598Z,16.25
2022-09-13T22:37:20.516Z,16.60
2022-09-13T22:39:47.532Z,14.80
2022-09-13T22:42:14.508Z,13.13
2022-09-13T22:44:41.591Z,14.77
2022-09-13T22:47:27.723Z,11.85
2022-09-13T22:49:54.689Z,13.90
2022-09-13T22:52:21.593Z,15.75
2022-09-13T22:54:50.765Z,14.48
2022-09-13T22:57:17.738Z,15.20
2022-09-13T23:00:03.556Z,14.55
2022-09-13T23:02:31.040Z,14.07
2022-09-13T23:04:57.944Z,15.27
2022-09-13T23:07:25.249Z,22.52
2022-09-13T23:09:52.193Z,16.02
2022-09-13T23:12:37.617Z,17.60
2022-09-13T23:15:05.069Z,14.77
2022-09-13T23:17:31.956Z,19.40
2022-09-13T23:19:58.878Z,16.95
2022-09-13T23:22:25.805Z,18.25
2022-09-13T23:24:52.710Z,18.02
2022-09-13T23:27:19.624Z,18.63
2022-09-13T23:29:46.836Z,15.73
2022-09-13T23:32:13.814Z,17.38
2022-09-13T23:34:40.740Z,17.23
2022-09-13T23:37:07.773Z,18.98
2022-09-13T23:39:53.333Z,19.40
2022-09-13T23:42:21.252Z,19.30
2022-09-13T23:44:48.176Z,19.10
2022-09-13T23:47:15.092Z,17.50
2022-09-13T23:50:00.653Z,16.88
2022-09-13T23:52:27.706Z,16.08
2022-09-13T23:54:54.652Z,17.00
2022-09-13T23:57:21.537Z,17.02
2022-09-13T23:59:48.593Z,18.52
